sensor_id;sensor_type;location;lat;lon;timestamp;temperature;humidity
12374;DHT22;6251;51.762;8.660;2022-12-07T05:04:29;3.90;99.90
12374;DHT22;6251;51.762;8.660;2022-12-07T05:14:30;3.80;99.90
12374;DHT22;6251;51.762;8.660;2022-12-07T05:24:30;3.80;99.90
12374;DHT22;6251;51.762;8.660;2022-12-07T05:34:31;3.80;99.90
12374;DHT22;6251;51.762;8.660;2022-12-07T05:44:31;3.70;99.90
12374;DHT22;6251;51.762;8.660;2022-12-07T05:54:32;3.60;99.90
12374;DHT22;6251;51.762;8.660;2022-12-07T06:04:37;3.50;99.90
12374;DHT22;6251;51.762;8.660;2022-12-07T06:14:38;3.50;99.90
12374;DHT22;6251;51.762;8.660;2022-12-07T06:24:39;3.40;99.90
12374;DHT22;6251;51.762;8.660;2022-12-07T06:34:40;3.30;99.90
12374;DHT22;6251;51.762;8.660;2022-12-07T06:44:40;3.30;99.90
12374;DHT22;6251;51.762;8.660;2022-12-07T06:54:41;3.20;99.90
12374;DHT22;6251;51.762;8.660;2022-12-07T07:04:42;3.20;99.90
12374;DHT22;6251;51.762;8.660;2022-12-07T07:14:42;3.10;99.90
12374;DHT22;6251;51.762;8.660;2022-12-07T07:24:43;3.00;99.90
12374;DHT22;6251;51.762;8.660;2022-12-07T07:34:44;3.00;99.90
12374;DHT22;6251;51.762;8.660;2022-12-07T07:44:44;2.90;99.90
12374;DHT22;6251;51.762;8.660;2022-12-07T07:54:45;2.80;99.90
12374;DHT22;6251;51.762;8.660;2022-12-07T08:04:46;2.70;99.90
12374;DHT22;6251;51.762;8.660;2022-12-07T08:14:55;2.80;99.90
12374;DHT22;6251;51.762;8.660;2022-12-07T08:24:55;2.90;99.90
12374;DHT22;6251;51.762;8.660;2022-12-07T08:35:04;3.00;99.90
12374;DHT22;6251;51.762;8.660;2022-12-07T08:45:11;3.10;99.90
12374;DHT22;6251;51.762;8.660;2022-12-07T08:55:12;3.20;99.90
12374;DHT22;6251;51.762;8.660;2022-12-07T09:05:13;3.30;99.90
12374;DHT22;6251;51.762;8.660;2022-12-07T09:15:16;3.40;99.90
12374;DHT22;6251;51.762;8.660;2022-12-07T09:25:17;3.50;99.90
12374;DHT22;6251;51.762;8.660;2022-12-07T09:35:18;3.50;99.90
12374;DHT22;6251;51.762;8.660;2022-12-07T09:55:27;3.70;99.90
12374;DHT22;6251;51.762;8.660;2022-12-07T10:05:43;3.80;99.90
12374;DHT22;6251;51.762;8.660;2022-12-07T10:15:54;4.00;99.90
12374;DHT22;6251;51.762;8.660;2022-12-07T10:25:55;4.30;99.90
12374;DHT22;6251;51.762;8.660;2022-12-07T10:35:56;4.60;99.90
12374;DHT22;6251;51.762;8.660;2022-12-07T10:56:36;4.50;99.90
12374;DHT22;6251;51.762;8.660;2022-12-07T11:27:40;4.90;99.90
12374;DHT22;6251;51.762;8.660;2022-12-07T11:37:45;4.90;99.90
12374;DHT22;6251;51.762;8.660;2022-12-07T11:47:51;4.90;99.90
12374;DHT22;6251;51.762;8.660;2022-12-07T11:58:04;4.90;99.90
12374;DHT22;6251;51.762;8.660;2022-12-07T12:08:27;5.00;99.90
12374;DHT22;6251;51.762;8.660;2022-12-07T12:18:57;4.90;99.90
12374;DHT22;6251;51.762;8.660;2022-12-07T12:29:06;5.10;99.90
12374;DHT22;6251;51.762;8.660;2022-12-07T12:39:12;5.10;99.90
12374;DHT22;6251;51.762;8.660;2022-12-07T12:49:30;5.00;99.90
12374;DHT22;6251;51.762;8.660;2022-12-07T12:59:39;5.00;99.90
12374;DHT22;6251;51.762;8.660;2022-12-07T13:09:44;5.10;99.90
12374;DHT22;6251;51.762;8.660;2022-12-07T13:29:46;5.10;99.90
12374;DHT22;6251;51.762;8.660;2022-12-07T13:39:52;5.20;99.90
12374;DHT22;6251;51.762;8.660;2022-12-07T13:49:57;5.00;99.90
12374;DHT22;6251;51.762;8.660;2022-12-07T13:59:58;5.00;99.90
12374;DHT22;6251;51.762;8.660;2022-12-07T14:10:05;5.00;99.90
12374;DHT22;6251;51.762;8.660;2022-12-07T14:20:36;5.00;99.90
12374;DHT22;6251;51.762;8.660;2022-12-07T14:30:37;5.00;99.90
12374;DHT22;6251;51.762;8.660;2022-12-07T14:40:38;4.90;99.90
12374;DHT22;6251;51.762;8.660;2022-12-07T14:50:43;4.90;99.90
12374;DHT22;6251;51.762;8.660;2022-12-07T15:00:45;4.80;99.90
12374;DHT22;6251;51.762;8.660;2022-12-07T15:10:46;4.60;99.90
12374;DHT22;6251;51.762;8.660;2022-12-07T15:20:46;4.40;99.90
12374;DHT22;6251;51.762;8.660;2022-12-07T15:30:47;4.00;99.90
12374;DHT22;6251;51.762;8.660;2022-12-07T15:40:48;3.70;99.90
12374;DHT22;6251;51.762;8.660;2022-12-07T16:01:13;3.60;99.90
12374;DHT22;6251;51.762;8.660;2022-12-07T16:11:13;3.50;99.90
12374;DHT22;6251;51.762;8.660;2022-12-07T16:21:15;3.40;99.90
12374;DHT22;6251;51.762;8.660;2022-12-07T16:31:17;3.40;99.90
12374;DHT22;6251;51.762;8.660;2022-12-07T16:41:18;3.30;99.90
12374;DHT22;6251;51.762;8.660;2022-12-07T16:51:19;3.10;99.90
12374;DHT22;6251;51.762;8.660;2022-12-07T17:01:21;2.90;99.90
12374;DHT22;6251;51.762;8.660;2022-12-07T17:11:28;2.90;99.90
12374;DHT22;6251;51.762;8.660;2022-12-07T17:21:29;2.80;99.90
12374;DHT22;6251;51.762;8.660;2022-12-07T17:31:31;2.80;99.90
12374;DHT22;6251;51.762;8.660;2022-12-07T17:41:32;2.70;99.90
12374;DHT22;6251;51.762;8.660;2022-12-07T17:51:56;2.70;99.90
12374;DHT22;6251;51.762;8.660;2022-12-07T18:02:15;2.80;99.90
12374;DHT22;6251;51.762;8.660;2022-12-07T18:12:16;2.90;99.90
12374;DHT22;6251;51.762;8.660;2022-12-07T18:22:16;2.90;99.90
12374;DHT22;6251;51.762;8.660;2022-12-07T18:32:17;3.00;99.90
12374;DHT22;6251;51.762;8.660;2022-12-07T18:42:18;3.10;99.90
12374;DHT22;6251;51.762;8.660;2022-12-07T18:52:18;3.10;99.90
12374;DHT22;6251;51.762;8.660;2022-12-07T19:02:19;3.20;99.90
12374;DHT22;6251;51.762;8.660;2022-12-07T19:12:20;3.20;99.90
12374;DHT22;6251;51.762;8.660;2022-12-07T19:22:21;3.10;99.90
12374;DHT22;6251;51.762;8.660;2022-12-07T19:32:22;3.10;99.90
12374;DHT22;6251;51.762;8.660;2022-12-07T19:42:22;3.00;99.90
12374;DHT22;6251;51.762;8.660;2022-12-07T19:52:23;3.10;99.90
12374;DHT22;6251;51.762;8.660;2022-12-07T20:02:25;3.00;99.90
12374;DHT22;6251;51.762;8.660;2022-12-07T20:12:26;3.00;99.90
12374;DHT22;6251;51.762;8.660;2022-12-07T20:23:05;3.00;99.90
12374;DHT22;6251;51.762;8.660;2022-12-07T20:33:06;3.00;99.90
12374;DHT22;6251;51.762;8.660;2022-12-07T20:43:07;3.00;99.90
12374;DHT22;6251;51.762;8.660;2022-12-07T20:53:08;2.90;99.90
12374;DHT22;6251;51.762;8.660;2022-12-07T21:03:09;2.90;99.90
12374;DHT22;6251;51.762;8.660;2022-12-07T21:13:10;2.90;99.90
12374;DHT22;6251;51.762;8.660;2022-12-07T21:23:14;2.80;99.90
12374;DHT22;6251;51.762;8.660;2022-12-07T21:33:15;2.70;99.90
12374;DHT22;6251;51.762;8.660;2022-12-07T21:43:15;2.60;99.90
12374;DHT22;6251;51.762;8.660;2022-12-07T21:53:16;2.70;99.90
12374;DHT22;6251;51.762;8.660;2022-12-07T22:03:17;2.80;99.90
12374;DHT22;6251;51.762;8.660;2022-12-07T22:13:17;2.90;99.90
